KWDRKGMU

Guest
Details From KWDR - Winder Barrow
To KGMU - Greenville Downtown
Flight Number -
Tags Generated
Created
Modified
Stats Distance 83 nm / 155 km
Max Altitude 0 ft / 0 m
Waypoints 2
Social Downloads 1
Likes 0
Share VATSIM

Download

Looking for another format? Having issues loading an existing format? Contact us
Advertisement - Login to hide

Notes

Generated

Route

KWDR KGMU

ID Type Via Altitude Latitude Longitude Leg Dist Tot Dist Heading (true) Name
O KWDR APT - 0 ft / 0 m 33.97779˚ -83.67310˚ - 0 nm - WINDER BARROW
O KGMU APT - 0 ft / 0 m 34.84809˚ -82.35881˚ 83 nm 83 nm 51° / 52° -

Altitude Profile

Advertisement - Login to hide

KWDR

Details ICAO KWDR (WDR)
Name WINDER BARROW
Region United States
Timezone America/New_York (UTC-5.0)
Stats Elevation 943 ft / 287 m (AMSL)
Location 33.982596° -83.667658°
Runways 2
Magnetic Variation 5.665° W

METAR

KWDR 171735Z AUTO 00000KT 10SM BKN080 BKN120 12/00 A3026 RMK AO1

Decode

TAF

Not found

Departure Runways

ID Width Length Bearing (true) Bearing (mag) Surface Threshold Offset Overrun Length
05 100 ft / 30 m 3,612 ft / 1,101 m 45.60° 51.27° Asphalt 0 ft / 0 m 0 ft / 0 m
13 100 ft / 30 m 5,501 ft / 1,677 m 128.78° 134.45° Asphalt 0 ft / 0 m 0 ft / 0 m
23 100 ft / 30 m 3,612 ft / 1,101 m 225.60° 231.27° Asphalt 0 ft / 0 m 0 ft / 0 m
31 100 ft / 30 m 5,501 ft / 1,677 m 308.79° 314.46° Asphalt 340 ft / 104 m 0 ft / 0 m

KGMU

Details ICAO KGMU
Name GREENVILLE DOWNTOWN
Region United States
Timezone America/New_York (UTC-5.0)
Stats Elevation 1,047 ft / 319 m (AMSL)
Location 34.847931° -82.350276°
Runways 2
Magnetic Variation 6.692° W

METAR

KGMU 171653Z 26008KT 10SM OVC090 09/M02 A3025 RMK AO2 PRESFR SLP249 T00941022

Decode

TAF

TAF KGMU 171737Z 1718/1818 23005KT P6SM BKN090 FM172100 23005KT P6SM VCSH BKN040 OVC090 FM180300 24004KT P6SM SCT025 BKN040 FM180900 23003KT 6SM BR BKN025 FM181400 25005KT P6SM SCT050 BKN200

Decode

Destination Runways

ID Width Length Bearing (true) Bearing (mag) Surface Threshold Offset Overrun Length
01 100 ft / 30 m 5,406 ft / 1,648 m 1.18° 7.87° Asphalt 0 ft / 0 m 0 ft / 0 m
10 80 ft / 24 m 3,990 ft / 1,216 m 91.35° 98.04° Asphalt 266 ft / 81 m 0 ft / 0 m
19 100 ft / 30 m 5,406 ft / 1,648 m 181.18° 187.87° Asphalt 0 ft / 0 m 200 ft / 61 m
28 80 ft / 24 m 3,990 ft / 1,216 m 271.36° 278.05° Asphalt 269 ft / 82 m 0 ft / 0 m

Approach Navaids

Runway Type Ident Frequency Range Bearing (true) Bearing (mag) Slope Elevation
01 Localiser IGMU 109.70 MHz 18 nm / 33 km 1.19° 7.88° - 1,047 ft / 319 m (AMSL)
01 Glidescope IGMU 109.70 MHz 10 nm / 19 km 1.18° 7.87° 3.00° 998 ft / 304 m (AMSL)